sensor_id;sensor_type;location;lat;lon;timestamp;pressure;altitude;pressure_sealevel;temperature;humidity
68197;BME280;55019;49.382;11.358;2023-03-31T00:02:19;96051.47;;;7.91;92.28
68197;BME280;55019;49.382;11.358;2023-03-31T00:04:47;96061.28;;;7.87;92.45
68197;BME280;55019;49.382;11.358;2023-03-31T00:07:19;96055.97;;;7.81;92.35
68197;BME280;55019;49.382;11.358;2023-03-31T00:09:48;96048.88;;;7.75;92.72
68197;BME280;55019;49.382;11.358;2023-03-31T00:12:15;96032.81;;;7.89;92.07
68197;BME280;55019;49.382;11.358;2023-03-31T00:14:42;96034.75;;;7.79;92.09
68197;BME280;55019;49.382;11.358;2023-03-31T00:17:08;96028.97;;;7.77;92.04
68197;BME280;55019;49.382;11.358;2023-03-31T00:19:35;96036.97;;;7.66;93.12
68197;BME280;55019;49.382;11.358;2023-03-31T00:22:01;96030.22;;;7.65;92.88
68197;BME280;55019;49.382;11.358;2023-03-31T00:24:30;96027.00;;;7.63;93.68
68197;BME280;55019;49.382;11.358;2023-03-31T00:26:58;96018.34;;;7.64;93.07
68197;BME280;55019;49.382;11.358;2023-03-31T00:29:24;96012.88;;;7.67;93.05
68197;BME280;55019;49.382;11.358;2023-03-31T00:31:50;96016.75;;;7.71;92.33
68197;BME280;55019;49.382;11.358;2023-03-31T00:34:16;96017.38;;;7.57;92.77
68197;BME280;55019;49.382;11.358;2023-03-31T00:36:41;96019.31;;;7.71;92.93
68197;BME280;55019;49.382;11.358;2023-03-31T00:39:15;96012.56;;;7.70;92.16
68197;BME280;55019;49.382;11.358;2023-03-31T00:41:42;96002.91;;;7.64;92.23
68197;BME280;55019;49.382;11.358;2023-03-31T00:44:16;95997.13;;;7.78;91.55
68197;BME280;55019;49.382;11.358;2023-03-31T00:49:24;95991.81;;;7.63;92.18
68197;BME280;55019;49.382;11.358;2023-03-31T00:51:54;95998.09;;;7.61;92.19
68197;BME280;55019;49.382;11.358;2023-03-31T00:54:23;95995.69;;;7.75;91.35
68197;BME280;55019;49.382;11.358;2023-03-31T00:56:52;95985.38;;;7.59;92.40
68197;BME280;55019;49.382;11.358;2023-03-31T00:59:24;95973.97;;;7.46;92.81
68197;BME280;55019;49.382;11.358;2023-03-31T01:04:51;95964.81;;;7.59;92.37
68197;BME280;55019;49.382;11.358;2023-03-31T01:10:00;95969.81;;;7.61;92.01
68197;BME280;55019;49.382;11.358;2023-03-31T01:12:28;95966.09;;;7.55;91.59
68197;BME280;55019;49.382;11.358;2023-03-31T01:14:54;95955.03;;;7.47;91.73
68197;BME280;55019;49.382;11.358;2023-03-31T01:17:21;95957.91;;;7.52;92.17
68197;BME280;55019;49.382;11.358;2023-03-31T01:20:16;95955.16;;;7.53;91.96
68197;BME280;55019;49.382;11.358;2023-03-31T01:28:09;95948.75;;;7.57;91.29
68197;BME280;55019;49.382;11.358;2023-03-31T01:31:15;95947.00;;;7.58;90.72
68197;BME280;55019;49.382;11.358;2023-03-31T01:50:26;95912.94;;;7.40;91.71
68197;BME280;55019;49.382;11.358;2023-03-31T01:53:04;95918.53;;;7.43;91.32
68197;BME280;55019;49.382;11.358;2023-03-31T01:55:40;95910.69;;;7.45;91.75
68197;BME280;55019;49.382;11.358;2023-03-31T01:58:11;95911.63;;;7.68;90.88
68197;BME280;55019;49.382;11.358;2023-03-31T02:00:44;95900.38;;;7.69;90.83
68197;BME280;55019;49.382;11.358;2023-03-31T02:03:28;95886.25;;;7.73;89.49
68197;BME280;55019;49.382;11.358;2023-03-31T02:06:01;95888.19;;;7.55;90.17
68197;BME280;55019;49.382;11.358;2023-03-31T02:09:09;95883.34;;;7.68;90.18
68197;BME280;55019;49.382;11.358;2023-03-31T02:11:30;95871.16;;;7.62;90.18
68197;BME280;55019;49.382;11.358;2023-03-31T02:14:00;95879.19;;;7.51;90.41
68197;BME280;55019;49.382;11.358;2023-03-31T02:16:30;95881.13;;;7.49;90.50
68197;BME280;55019;49.382;11.358;2023-03-31T02:19:01;95889.31;;;7.44;90.91
68197;BME280;55019;49.382;11.358;2023-03-31T02:21:31;95879.84;;;7.45;90.71
68197;BME280;55019;49.382;11.358;2023-03-31T02:23:59;95877.91;;;7.47;90.56
68197;BME280;55019;49.382;11.358;2023-03-31T02:26:30;95882.72;;;7.50;91.13
68197;BME280;55019;49.382;11.358;2023-03-31T02:28:58;95875.31;;;7.71;90.77
68197;BME280;55019;49.382;11.358;2023-03-31T02:33:58;95871.94;;;7.78;89.93
68197;BME280;55019;49.382;11.358;2023-03-31T02:36:25;95874.22;;;7.73;90.91
68197;BME280;55019;49.382;11.358;2023-03-31T02:39:03;95873.09;;;7.52;91.58
68197;BME280;55019;49.382;11.358;2023-03-31T02:41:30;95876.28;;;7.30;92.36
68197;BME280;55019;49.382;11.358;2023-03-31T02:43:56;95862.47;;;7.31;92.62
68197;BME280;55019;49.382;11.358;2023-03-31T02:46:23;95872.44;;;7.34;92.21
68197;BME280;55019;49.382;11.358;2023-03-31T02:48:54;95860.72;;;7.31;92.04
68197;BME280;55019;49.382;11.358;2023-03-31T02:54:10;95855.41;;;7.33;92.39
68197;BME280;55019;49.382;11.358;2023-03-31T03:16:56;95802.06;;;7.35;91.32
68197;BME280;55019;49.382;11.358;2023-03-31T03:19:23;95803.69;;;7.44;90.42
68197;BME280;55019;49.382;11.358;2023-03-31T03:21:49;95791.19;;;7.41;91.18
68197;BME280;55019;49.382;11.358;2023-03-31T03:24:15;95793.09;;;7.39;90.47
68197;BME280;55019;49.382;11.358;2023-03-31T03:26:43;95791.50;;;7.46;90.34
68197;BME280;55019;49.382;11.358;2023-03-31T03:29:12;95789.25;;;7.43;90.90
68197;BME280;55019;49.382;11.358;2023-03-31T03:31:40;95783.47;;;7.41;91.27
68197;BME280;55019;49.382;11.358;2023-03-31T03:34:06;95781.53;;;7.43;91.46
68197;BME280;55019;49.382;11.358;2023-03-31T03:36:32;95767.38;;;7.39;91.36
68197;BME280;55019;49.382;11.358;2023-03-31T03:38:57;95766.44;;;7.48;91.27
68197;BME280;55019;49.382;11.358;2023-03-31T03:41:23;95762.41;;;7.45;91.61
68197;BME280;55019;49.382;11.358;2023-03-31T03:43:49;95756.94;;;7.48;90.97
68197;BME280;55019;49.382;11.358;2023-03-31T03:46:15;95741.84;;;7.45;91.84
68197;BME280;55019;49.382;11.358;2023-03-31T03:48:40;95737.38;;;7.39;91.92
68197;BME280;55019;49.382;11.358;2023-03-31T03:51:06;95735.72;;;7.54;91.83
68197;BME280;55019;49.382;11.358;2023-03-31T03:53:32;95722.72;;;7.48;91.72
68197;BME280;55019;49.382;11.358;2023-03-31T03:55:57;95739.56;;;7.50;91.41
68197;BME280;55019;49.382;11.358;2023-03-31T03:58:23;95730.78;;;7.45;92.19
68197;BME280;55019;49.382;11.358;2023-03-31T04:00:49;95721.78;;;7.41;93.24
68197;BME280;55019;49.382;11.358;2023-03-31T04:03:15;95731.72;;;7.36;94.79
68197;BME280;55019;49.382;11.358;2023-03-31T04:05:41;95731.28;;;7.32;95.05
68197;BME280;55019;49.382;11.358;2023-03-31T04:08:07;95731.13;;;7.26;95.93
68197;BME280;55019;49.382;11.358;2023-03-31T04:10:34;95719.88;;;7.19;96.85
68197;BME280;55019;49.382;11.358;2023-03-31T04:13:00;95721.81;;;7.17;97.59
68197;BME280;55019;49.382;11.358;2023-03-31T04:15:26;95715.91;;;7.16;97.48
68197;BME280;55019;49.382;11.358;2023-03-31T04:17:52;95711.53;;;7.17;97.64
68197;BME280;55019;49.382;11.358;2023-03-31T04:20:19;95709.63;;;7.19;98.10
68197;BME280;55019;49.382;11.358;2023-03-31T04:22:46;95698.69;;;7.25;98.32
68197;BME280;55019;49.382;11.358;2023-03-31T04:25:15;95701.25;;;7.17;98.92
68197;BME280;55019;49.382;11.358;2023-03-31T04:27:42;95695.50;;;7.15;98.49
68197;BME280;55019;49.382;11.358;2023-03-31T04:30:14;95688.59;;;7.15;99.45
68197;BME280;55019;49.382;11.358;2023-03-31T04:32:50;95691.94;;;7.24;98.72
68197;BME280;55019;49.382;11.358;2023-03-31T04:35:16;95672.63;;;7.44;96.08
68197;BME280;55019;49.382;11.358;2023-03-31T04:37:43;95678.72;;;7.51;95.55
68197;BME280;55019;49.382;11.358;2023-03-31T04:40:09;95669.56;;;7.48;96.59
68197;BME280;55019;49.382;11.358;2023-03-31T04:42:36;95668.75;;;7.48;97.22
68197;BME280;55019;49.382;11.358;2023-03-31T04:45:02;95660.09;;;7.49;96.45
68197;BME280;55019;49.382;11.358;2023-03-31T04:47:28;95650.84;;;7.62;94.60
68197;BME280;55019;49.382;11.358;2023-03-31T04:49:54;95643.97;;;7.63;95.28
68197;BME280;55019;49.382;11.358;2023-03-31T04:52:20;95642.00;;;7.65;95.36
68197;BME280;55019;49.382;11.358;2023-03-31T04:54:46;95631.09;;;7.63;95.63
68197;BME280;55019;49.382;11.358;2023-03-31T04:57:11;95633.38;;;7.58;95.60
68197;BME280;55019;49.382;11.358;2023-03-31T04:59:37;95616.97;;;7.59;95.40
68197;BME280;55019;49.382;11.358;2023-03-31T05:02:03;95611.38;;;7.55;96.17
68197;BME280;55019;49.382;11.358;2023-03-31T05:04:28;95601.50;;;7.67;95.17
68197;BME280;55019;49.382;11.358;2023-03-31T05:06:54;95598.66;;;7.62;95.99
68197;BME280;55019;49.382;11.358;2023-03-31T05:09:20;95594.09;;;7.72;96.58
68197;BME280;55019;49.382;11.358;2023-03-31T05:11:46;95592.16;;;7.74;95.82
68197;BME280;55019;49.382;11.358;2023-03-31T05:14:12;95581.53;;;7.77;96.53
68197;BME280;55019;49.382;11.358;2023-03-31T05:16:38;95578.66;;;7.72;95.94
68197;BME280;55019;49.382;11.358;2023-03-31T05:19:03;95575.66;;;7.68;95.77
68197;BME280;55019;49.382;11.358;2023-03-31T05:21:29;95574.72;;;7.84;94.78
68197;BME280;55019;49.382;11.358;2023-03-31T05:23:56;95579.28;;;7.74;94.91
68197;BME280;55019;49.382;11.358;2023-03-31T05:26:23;95576.16;;;7.64;95.59
68197;BME280;55019;49.382;11.358;2023-03-31T05:28:53;95565.81;;;7.72;95.09
68197;BME280;55019;49.382;11.358;2023-03-31T05:31:19;95560.38;;;7.67;95.59
68197;BME280;55019;49.382;11.358;2023-03-31T05:33:45;95552.44;;;7.54;97.32
68197;BME280;55019;49.382;11.358;2023-03-31T05:36:14;95548.56;;;7.58;96.43
68197;BME280;55019;49.382;11.358;2023-03-31T05:38:40;95548.38;;;7.59;95.54
68197;BME280;55019;49.382;11.358;2023-03-31T05:41:06;95528.22;;;7.71;95.69
68197;BME280;55019;49.382;11.358;2023-03-31T05:43:34;95530.97;;;7.92;94.79
68197;BME280;55019;49.382;11.358;2023-03-31T05:46:01;95526.50;;;7.86;94.13
68197;BME280;55019;49.382;11.358;2023-03-31T05:48:26;95516.97;;;7.72;94.49
68197;BME280;55019;49.382;11.358;2023-03-31T05:51:00;95521.41;;;7.78;93.67
68197;BME280;55019;49.382;11.358;2023-03-31T05:53:26;95506.81;;;7.78;94.29
68197;BME280;55019;49.382;11.358;2023-03-31T05:55:57;95499.38;;;7.83;92.81
68197;BME280;55019;49.382;11.358;2023-03-31T05:58:23;95502.56;;;7.85;92.52
68197;BME280;55019;49.382;11.358;2023-03-31T06:00:48;95500.44;;;7.89;92.12
68197;BME280;55019;49.382;11.358;2023-03-31T06:03:14;95508.13;;;7.97;92.79
68197;BME280;55019;49.382;11.358;2023-03-31T06:05:46;95497.28;;;8.01;92.17
68197;BME280;55019;49.382;11.358;2023-03-31T06:08:12;95490.59;;;8.15;91.31
68197;BME280;55019;49.382;11.358;2023-03-31T06:10:37;95489.63;;;8.16;90.89
68197;BME280;55019;49.382;11.358;2023-03-31T06:13:03;95497.56;;;8.06;92.21
68197;BME280;55019;49.382;11.358;2023-03-31T06:15:29;95494.84;;;8.08;91.33
68197;BME280;55019;49.382;11.358;2023-03-31T06:17:54;95483.22;;;8.12;90.80
68197;BME280;55019;49.382;11.358;2023-03-31T06:20:20;95468.94;;;8.09;91.04
68197;BME280;55019;49.382;11.358;2023-03-31T06:22:46;95468.13;;;8.09;91.19
68197;BME280;55019;49.382;11.358;2023-03-31T06:25:11;95471.69;;;8.08;91.63
68197;BME280;55019;49.382;11.358;2023-03-31T06:27:37;95473.63;;;8.06;92.68
68197;BME280;55019;49.382;11.358;2023-03-31T06:30:03;95473.38;;;8.15;91.86
68197;BME280;55019;49.382;11.358;2023-03-31T06:32:29;95481.00;;;8.09;92.90
68197;BME280;55019;49.382;11.358;2023-03-31T06:34:54;95483.09;;;8.05;92.70
68197;BME280;55019;49.382;11.358;2023-03-31T06:37:20;95473.34;;;8.01;92.43
68197;BME280;55019;49.382;11.358;2023-03-31T06:39:46;95484.00;;;7.98;93.74
68197;BME280;55019;49.382;11.358;2023-03-31T06:42:11;95484.69;;;7.92;94.37
68197;BME280;55019;49.382;11.358;2023-03-31T06:44:39;95473.75;;;7.90;94.60
68197;BME280;55019;49.382;11.358;2023-03-31T06:47:05;95491.75;;;7.90;95.51
68197;BME280;55019;49.382;11.358;2023-03-31T06:49:31;95489.25;;;7.82;95.62
68197;BME280;55019;49.382;11.358;2023-03-31T06:51:56;95492.16;;;7.79;97.21
68197;BME280;55019;49.382;11.358;2023-03-31T06:54:22;95506.88;;;7.70;98.21
68197;BME280;55019;49.382;11.358;2023-03-31T06:56:48;95503.19;;;7.65;99.29
68197;BME280;55019;49.382;11.358;2023-03-31T06:59:13;95510.63;;;7.60;100.00
68197;BME280;55019;49.382;11.358;2023-03-31T07:01:39;95509.66;;;7.61;100.00
68197;BME280;55019;49.382;11.358;2023-03-31T07:04:07;95509.19;;;7.57;100.00
68197;BME280;55019;49.382;11.358;2023-03-31T07:06:33;95521.88;;;7.59;100.00
68197;BME280;55019;49.382;11.358;2023-03-31T07:08:59;95504.91;;;7.50;100.00
68197;BME280;55019;49.382;11.358;2023-03-31T07:11:24;95505.25;;;7.47;100.00
68197;BME280;55019;49.382;11.358;2023-03-31T07:13:50;95511.31;;;7.54;100.00
68197;BME280;55019;49.382;11.358;2023-03-31T07:16:16;95512.03;;;7.40;100.00
68197;BME280;55019;49.382;11.358;2023-03-31T07:18:41;95502.69;;;7.47;100.00
68197;BME280;55019;49.382;11.358;2023-03-31T07:21:07;95505.88;;;7.49;100.00
68197;BME280;55019;49.382;11.358;2023-03-31T07:23:33;95504.63;;;7.45;100.00
68197;BME280;55019;49.382;11.358;2023-03-31T07:26:00;95495.94;;;7.46;100.00
68197;BME280;55019;49.382;11.358;2023-03-31T07:28:28;95493.03;;;7.49;100.00
68197;BME280;55019;49.382;11.358;2023-03-31T07:30:53;95486.03;;;7.57;100.00
68197;BME280;55019;49.382;11.358;2023-03-31T07:33:19;95482.06;;;7.55;100.00
68197;BME280;55019;49.382;11.358;2023-03-31T07:35:45;95470.81;;;7.56;100.00
68197;BME280;55019;49.382;11.358;2023-03-31T07:38:11;95477.09;;;7.76;100.00
68197;BME280;55019;49.382;11.358;2023-03-31T07:40:38;95472.84;;;7.60;100.00
68197;BME280;55019;49.382;11.358;2023-03-31T07:43:05;95467.97;;;7.73;100.00
68197;BME280;55019;49.382;11.358;2023-03-31T07:45:31;95468.31;;;7.70;100.00
68197;BME280;55019;49.382;11.358;2023-03-31T07:47:57;95457.06;;;7.63;100.00
68197;BME280;55019;49.382;11.358;2023-03-31T07:50:23;95453.22;;;7.67;100.00
68197;BME280;55019;49.382;11.358;2023-03-31T07:52:51;95450.59;;;7.53;100.00
68197;BME280;55019;49.382;11.358;2023-03-31T07:55:17;95441.22;;;7.60;100.00
68197;BME280;55019;49.382;11.358;2023-03-31T07:57:44;95431.22;;;7.65;100.00
68197;BME280;55019;49.382;11.358;2023-03-31T08:00:11;95433.22;;;7.77;100.00
68197;BME280;55019;49.382;11.358;2023-03-31T08:02:39;95415.44;;;7.68;100.00
68197;BME280;55019;49.382;11.358;2023-03-31T08:05:08;95413.06;;;7.81;100.00
68197;BME280;55019;49.382;11.358;2023-03-31T08:07:34;95412.53;;;7.71;100.00
68197;BME280;55019;49.382;11.358;2023-03-31T08:10:03;95411.03;;;7.76;100.00
68197;BME280;55019;49.382;11.358;2023-03-31T08:12:29;95408.47;;;7.76;100.00
68197;BME280;55019;49.382;11.358;2023-03-31T08:14:54;95407.50;;;7.77;100.00
68197;BME280;55019;49.382;11.358;2023-03-31T08:17:20;95411.03;;;7.76;100.00
68197;BME280;55019;49.382;11.358;2023-03-31T08:19:46;95413.06;;;7.81;100.00
68197;BME280;55019;49.382;11.358;2023-03-31T08:22:11;95416.88;;;7.70;100.00
68197;BME280;55019;49.382;11.358;2023-03-31T08:24:37;95417.44;;;7.80;100.00
68197;BME280;55019;49.382;11.358;2023-03-31T08:27:03;95418.91;;;7.75;100.00
68197;BME280;55019;49.382;11.358;2023-03-31T08:29:28;95414.47;;;7.69;100.00
68197;BME280;55019;49.382;11.358;2023-03-31T08:31:54;95418.81;;;7.68;100.00
68197;BME280;55019;49.382;11.358;2023-03-31T08:34:20;95414.88;;;7.58;100.00
68197;BME280;55019;49.382;11.358;2023-03-31T08:36:46;95417.91;;;7.61;100.00
68197;BME280;55019;49.382;11.358;2023-03-31T08:39:12;95437.69;;;7.61;100.00
68197;BME280;55019;49.382;11.358;2023-03-31T08:42:06;95439.28;;;7.62;100.00
68197;BME280;55019;49.382;11.358;2023-03-31T08:45:01;95422.19;;;7.69;100.00
68197;BME280;55019;49.382;11.358;2023-03-31T08:47:29;95422.53;;;7.66;100.00
68197;BME280;55019;49.382;11.358;2023-03-31T08:49:59;95416.41;;;7.67;100.00
68197;BME280;55019;49.382;11.358;2023-03-31T08:52:33;95422.19;;;7.69;100.00
68197;BME280;55019;49.382;11.358;2023-03-31T08:55:05;95407.59;;;7.84;100.00
68197;BME280;55019;49.382;11.358;2023-03-31T08:57:42;95400.69;;;7.84;100.00
68197;BME280;55019;49.382;11.358;2023-03-31T09:00:16;95366.38;;;8.06;100.00
68197;BME280;55019;49.382;11.358;2023-03-31T09:02:56;95261.75;;;8.21;100.00
68197;BME280;55019;49.382;11.358;2023-03-31T09:10:32;95245.03;;;8.32;100.00
68197;BME280;55019;49.382;11.358;2023-03-31T09:16:01;95278.97;;;8.42;100.00
68197;BME280;55019;49.382;11.358;2023-03-31T09:18:32;95288.13;;;8.44;100.00
68197;BME280;55019;49.382;11.358;2023-03-31T09:26:33;95322.06;;;8.33;100.00
68197;BME280;55019;49.382;11.358;2023-03-31T09:29:03;95313.28;;;8.28;100.00
68197;BME280;55019;49.382;11.358;2023-03-31T09:31:31;95297.91;;;8.34;100.00
68197;BME280;55019;49.382;11.358;2023-03-31T09:33:59;95282.91;;;8.38;100.00
68197;BME280;55019;49.382;11.358;2023-03-31T09:36:26;95284.13;;;8.42;100.00
68197;BME280;55019;49.382;11.358;2023-03-31T09:38:51;95275.88;;;8.46;100.00
68197;BME280;55019;49.382;11.358;2023-03-31T09:41:18;95267.25;;;8.54;100.00
68197;BME280;55019;49.382;11.358;2023-03-31T09:43:46;95282.03;;;8.66;100.00
68197;BME280;55019;49.382;11.358;2023-03-31T09:49:03;95269.97;;;8.87;100.00
68197;BME280;55019;49.382;11.358;2023-03-31T09:51:34;95266.94;;;8.98;100.00
68197;BME280;55019;49.382;11.358;2023-03-31T09:54:31;95263.03;;;9.09;100.00
68197;BME280;55019;49.382;11.358;2023-03-31T09:56:55;95279.41;;;9.22;100.00
68197;BME280;55019;49.382;11.358;2023-03-31T09:59:23;95280.19;;;9.44;99.43
68197;BME280;55019;49.382;11.358;2023-03-31T10:01:58;95282.84;;;9.84;100.00
68197;BME280;55019;49.382;11.358;2023-03-31T10:04:27;95280.97;;;10.39;96.97
68197;BME280;55019;49.382;11.358;2023-03-31T10:06:53;95274.34;;;10.84;95.42
68197;BME280;55019;49.382;11.358;2023-03-31T10:09:24;95269.91;;;10.58;93.58
68197;BME280;55019;49.382;11.358;2023-03-31T10:12:18;95257.75;;;10.46;92.95
68197;BME280;55019;49.382;11.358;2023-03-31T10:14:49;95254.13;;;11.00;91.25
68197;BME280;55019;49.382;11.358;2023-03-31T10:17:15;95241.81;;;11.41;90.17
68197;BME280;55019;49.382;11.358;2023-03-31T10:19:56;95240.81;;;11.74;88.24
68197;BME280;55019;49.382;11.358;2023-03-31T10:24:49;95226.25;;;11.86;84.01
68197;BME280;55019;49.382;11.358;2023-03-31T10:29:44;95225.09;;;12.33;82.79
68197;BME280;55019;49.382;11.358;2023-03-31T10:32:27;95237.81;;;11.71;84.96
68197;BME280;55019;49.382;11.358;2023-03-31T10:34:55;95238.00;;;11.82;87.41
68197;BME280;55019;49.382;11.358;2023-03-31T10:37:26;95233.00;;;11.87;87.19
68197;BME280;55019;49.382;11.358;2023-03-31T10:40:02;95232.84;;;11.50;89.80
68197;BME280;55019;49.382;11.358;2023-03-31T10:42:30;95237.84;;;11.00;90.42
68197;BME280;55019;49.382;11.358;2023-03-31T10:45:11;95224.88;;;10.87;92.24
68197;BME280;55019;49.382;11.358;2023-03-31T10:47:39;95231.88;;;11.06;93.51
68197;BME280;55019;49.382;11.358;2023-03-31T10:50:13;95221.91;;;10.90;93.83
68197;BME280;55019;49.382;11.358;2023-03-31T10:52:43;95224.31;;;10.98;93.16
68197;BME280;55019;49.382;11.358;2023-03-31T10:55:25;95223.50;;;11.17;92.65
68197;BME280;55019;49.382;11.358;2023-03-31T10:57:57;95216.38;;;11.06;90.64
68197;BME280;55019;49.382;11.358;2023-03-31T11:00:36;95214.56;;;11.06;89.92
68197;BME280;55019;49.382;11.358;2023-03-31T11:03:38;95223.31;;;11.63;89.54
68197;BME280;55019;49.382;11.358;2023-03-31T11:08:51;95198.22;;;12.34;82.39
68197;BME280;55019;49.382;11.358;2023-03-31T11:16:47;95175.28;;;13.23;76.47
68197;BME280;55019;49.382;11.358;2023-03-31T11:22:23;95163.56;;;13.21;77.08
68197;BME280;55019;49.382;11.358;2023-03-31T11:31:00;95147.28;;;14.40;71.17
68197;BME280;55019;49.382;11.358;2023-03-31T11:33:57;95141.34;;;14.80;67.45
68197;BME280;55019;49.382;11.358;2023-03-31T11:36:38;95136.81;;;14.98;67.54
68197;BME280;55019;49.382;11.358;2023-03-31T11:41:57;95118.63;;;13.27;69.68
68197;BME280;55019;49.382;11.358;2023-03-31T11:44:27;95124.84;;;13.80;69.64
68197;BME280;55019;49.382;11.358;2023-03-31T11:46:57;95112.16;;;13.54;66.37
68197;BME280;55019;49.382;11.358;2023-03-31T11:49:28;95109.06;;;14.29;64.90
68197;BME280;55019;49.382;11.358;2023-03-31T11:51:58;95100.91;;;15.41;62.84
68197;BME280;55019;49.382;11.358;2023-03-31T11:54:34;95093.53;;;16.28;59.10
68197;BME280;55019;49.382;11.358;2023-03-31T11:57:06;95077.91;;;16.40;56.32
68197;BME280;55019;49.382;11.358;2023-03-31T11:59:36;95073.03;;;15.53;57.37
68197;BME280;55019;49.382;11.358;2023-03-31T12:02:18;95070.78;;;14.76;58.82
68197;BME280;55019;49.382;11.358;2023-03-31T12:04:54;95076.88;;;14.30;61.08
68197;BME280;55019;49.382;11.358;2023-03-31T12:07:31;95060.47;;;13.52;62.04
68197;BME280;55019;49.382;11.358;2023-03-31T12:10:53;95081.56;;;13.20;65.01
68197;BME280;55019;49.382;11.358;2023-03-31T12:13:44;95147.22;;;12.65;69.20
68197;BME280;55019;49.382;11.358;2023-03-31T12:18:48;95153.53;;;11.05;71.62
68197;BME280;55019;49.382;11.358;2023-03-31T12:21:22;95140.19;;;10.89;76.25
68197;BME280;55019;49.382;11.358;2023-03-31T12:23:49;95141.78;;;10.90;79.88
68197;BME280;55019;49.382;11.358;2023-03-31T12:26:25;95134.84;;;10.77;80.23
68197;BME280;55019;49.382;11.358;2023-03-31T12:28:58;95117.34;;;10.92;81.56
68197;BME280;55019;49.382;11.358;2023-03-31T12:31:27;95114.94;;;11.10;78.65
68197;BME280;55019;49.382;11.358;2023-03-31T12:34:07;95112.09;;;11.38;73.57
68197;BME280;55019;49.382;11.358;2023-03-31T12:42:13;95107.38;;;13.51;58.31
68197;BME280;55019;49.382;11.358;2023-03-31T12:47:40;95119.91;;;13.36;59.29
68197;BME280;55019;49.382;11.358;2023-03-31T12:52:56;95110.06;;;13.62;57.14
68197;BME280;55019;49.382;11.358;2023-03-31T13:01:12;95098.31;;;14.54;58.19
68197;BME280;55019;49.382;11.358;2023-03-31T13:11:39;95049.88;;;13.72;64.83
68197;BME280;55019;49.382;11.358;2023-03-31T13:14:21;95053.78;;;13.27;66.55
68197;BME280;55019;49.382;11.358;2023-03-31T13:16:48;95046.88;;;12.72;67.71
68197;BME280;55019;49.382;11.358;2023-03-31T13:19:35;95133.41;;;12.09;70.72
68197;BME280;55019;49.382;11.358;2023-03-31T13:22:03;95179.59;;;9.71;81.44
68197;BME280;55019;49.382;11.358;2023-03-31T13:24:31;95103.03;;;8.07;87.60
68197;BME280;55019;49.382;11.358;2023-03-31T13:27:23;95217.81;;;7.36;100.00
68197;BME280;55019;49.382;11.358;2023-03-31T13:29:44;95197.19;;;7.58;100.00
68197;BME280;55019;49.382;11.358;2023-03-31T13:34:41;95184.06;;;7.68;100.00
68197;BME280;55019;49.382;11.358;2023-03-31T13:43:04;95153.84;;;8.05;100.00
68197;BME280;55019;49.382;11.358;2023-03-31T13:50:45;95141.38;;;9.13;100.00
68197;BME280;55019;49.382;11.358;2023-03-31T13:53:56;95136.81;;;9.43;99.88
68197;BME280;55019;49.382;11.358;2023-03-31T13:59:19;95143.16;;;9.47;94.81
68197;BME280;55019;49.382;11.358;2023-03-31T14:02:04;95134.28;;;9.96;95.44
68197;BME280;55019;49.382;11.358;2023-03-31T14:07:14;95132.81;;;11.18;84.66
68197;BME280;55019;49.382;11.358;2023-03-31T14:09:44;95127.28;;;11.15;84.33
68197;BME280;55019;49.382;11.358;2023-03-31T14:12:35;95137.03;;;10.48;86.24
68197;BME280;55019;49.382;11.358;2023-03-31T14:15:03;95129.47;;;10.66;87.63
68197;BME280;55019;49.382;11.358;2023-03-31T14:17:36;95132.47;;;10.63;87.84
68197;BME280;55019;49.382;11.358;2023-03-31T14:28:32;95110.50;;;8.65;93.50
68197;BME280;55019;49.382;11.358;2023-03-31T14:31:11;95117.88;;;8.95;94.78
68197;BME280;55019;49.382;11.358;2023-03-31T14:39:05;95114.25;;;9.98;89.70
68197;BME280;55019;49.382;11.358;2023-03-31T14:41:36;95106.97;;;10.21;90.55
68197;BME280;55019;49.382;11.358;2023-03-31T14:44:05;95102.63;;;10.41;90.68
68197;BME280;55019;49.382;11.358;2023-03-31T14:46:36;95095.06;;;10.33;89.34
68197;BME280;55019;49.382;11.358;2023-03-31T14:49:21;95090.47;;;11.19;87.08
68197;BME280;55019;49.382;11.358;2023-03-31T14:51:51;95078.19;;;12.15;84.22
68197;BME280;55019;49.382;11.358;2023-03-31T14:54:18;95073.09;;;12.33;83.53
68197;BME280;55019;49.382;11.358;2023-03-31T14:56:51;95081.03;;;12.38;82.29
68197;BME280;55019;49.382;11.358;2023-03-31T14:59:22;95082.78;;;12.44;81.97
68197;BME280;55019;49.382;11.358;2023-03-31T15:01:49;95070.31;;;11.53;85.64
68197;BME280;55019;49.382;11.358;2023-03-31T15:04:19;95072.81;;;10.84;88.08
68197;BME280;55019;49.382;11.358;2023-03-31T15:06:47;95070.47;;;10.63;90.26
68197;BME280;55019;49.382;11.358;2023-03-31T15:09:35;95072.06;;;10.64;90.58
68197;BME280;55019;49.382;11.358;2023-03-31T15:12:03;95075.22;;;10.40;90.05
68197;BME280;55019;49.382;11.358;2023-03-31T15:14:32;95064.09;;;10.20;89.72
68197;BME280;55019;49.382;11.358;2023-03-31T15:16:59;95064.00;;;9.88;90.56
68197;BME280;55019;49.382;11.358;2023-03-31T15:19:28;95064.25;;;10.05;93.30
68197;BME280;55019;49.382;11.358;2023-03-31T15:21:56;95066.97;;;9.91;91.44
68197;BME280;55019;49.382;11.358;2023-03-31T15:24:27;95073.13;;;9.90;91.09
68197;BME280;55019;49.382;11.358;2023-03-31T15:26:59;95073.34;;;9.95;90.76
68197;BME280;55019;49.382;11.358;2023-03-31T15:29:36;95059.06;;;9.99;89.43
68197;BME280;55019;49.382;11.358;2023-03-31T15:32:06;95069.97;;;9.95;90.79
68197;BME280;55019;49.382;11.358;2023-03-31T15:34:36;95055.66;;;9.92;89.52
68197;BME280;55019;49.382;11.358;2023-03-31T15:37:05;95045.88;;;9.68;90.27
68197;BME280;55019;49.382;11.358;2023-03-31T15:39:32;95057.44;;;9.79;89.71
68197;BME280;55019;49.382;11.358;2023-03-31T15:42:03;95060.94;;;9.65;88.88
68197;BME280;55019;49.382;11.358;2023-03-31T15:47:06;95063.69;;;9.50;89.65
68197;BME280;55019;49.382;11.358;2023-03-31T15:49:33;95064.50;;;9.57;89.11
68197;BME280;55019;49.382;11.358;2023-03-31T15:51:59;95064.06;;;9.54;89.86